createdAt,value
2019-03-04T00:00:19.347Z,22.99
2019-03-04T00:01:19.265Z,22.97
2019-03-04T00:02:19.277Z,22.97
2019-03-04T00:03:19.260Z,23.06
2019-03-04T00:04:19.280Z,22.97
2019-03-04T00:05:19.275Z,23.00
2019-03-04T00:06:19.251Z,22.97
2019-03-04T00:07:19.240Z,23.00
2019-03-04T00:08:19.234Z,23.03
2019-03-04T00:09:19.233Z,22.89
2019-03-04T00:10:19.227Z,22.99
2019-03-04T00:11:19.211Z,23.06
2019-03-04T00:12:19.205Z,23.01
2019-03-04T00:13:19.207Z,23.07
2019-03-04T00:14:19.191Z,23.04
2019-03-04T00:15:19.185Z,23.09
2019-03-04T00:16:19.195Z,23.01
2019-03-04T00:17:19.184Z,23.06
2019-03-04T00:18:19.178Z,22.97
2019-03-04T00:19:19.165Z,23.12
2019-03-04T00:20:19.145Z,22.93
2019-03-04T00:21:19.136Z,22.94
2019-03-04T00:22:19.124Z,23.00
2019-03-04T00:23:19.147Z,22.97
2019-03-04T00:24:19.139Z,23.04
2019-03-04T00:25:19.111Z,23.01
2019-03-04T00:26:19.121Z,23.06
2019-03-04T00:27:19.104Z,23.14
2019-03-04T00:28:19.091Z,23.04
2019-03-04T00:29:19.097Z,23.00
2019-03-04T00:30:19.084Z,23.06
2019-03-04T00:31:19.074Z,22.94
2019-03-04T00:32:19.064Z,23.07
2019-03-04T00:33:19.087Z,23.09
2019-03-04T00:34:19.272Z,23.11
2019-03-04T00:35:19.064Z,23.11
2019-03-04T00:36:19.063Z,23.11
2019-03-04T00:37:19.041Z,23.01
2019-03-04T00:38:19.071Z,23.14
2019-03-04T00:39:19.228Z,23.15
2019-03-04T00:40:19.023Z,23.00
2019-03-04T00:41:19.003Z,23.06
2019-03-04T00:42:19.015Z,23.06
2019-03-04T00:43:18.999Z,23.11
2019-03-04T00:44:19.000Z,23.03
2019-03-04T00:45:18.988Z,23.00
2019-03-04T00:46:18.975Z,22.91
2019-03-04T00:47:18.971Z,23.06
2019-03-04T00:48:18.982Z,23.00
2019-03-04T00:49:18.951Z,23.01
2019-03-04T00:50:18.945Z,23.06
2019-03-04T00:51:18.950Z,22.99
2019-03-04T00:52:18.934Z,23.14
2019-03-04T00:53:18.913Z,23.09
2019-03-04T00:54:18.919Z,23.11
2019-03-04T00:55:18.908Z,23.07
2019-03-04T00:56:18.918Z,23.04
2019-03-04T00:57:18.898Z,22.96
2019-03-04T00:58:18.903Z,23.03
2019-03-04T00:59:18.894Z,23.00
2019-03-04T01:00:18.901Z,23.04
2019-03-04T01:01:18.869Z,22.99
2019-03-04T01:02:18.863Z,23.06
2019-03-04T01:03:18.872Z,23.03
2019-03-04T01:04:18.850Z,23.04
2019-03-04T01:05:18.851Z,22.94
2019-03-04T01:06:18.834Z,22.94
2019-03-04T01:07:18.815Z,23.01
2019-03-04T01:08:18.820Z,23.06
2019-03-04T01:09:18.827Z,22.97
2019-03-04T01:10:18.819Z,23.01
2019-03-04T01:11:18.797Z,22.99
2019-03-04T01:12:18.838Z,22.96
2019-03-04T01:13:18.837Z,22.88
2019-03-04T01:14:18.781Z,22.89
2019-03-04T01:15:18.771Z,22.88
2019-03-04T01:16:18.786Z,22.97
2019-03-04T01:17:18.803Z,22.99
2019-03-04T01:18:18.750Z,22.85
2019-03-04T01:19:18.755Z,23.01
2019-03-04T01:20:18.752Z,23.03
2019-03-04T01:21:18.750Z,22.91
2019-03-04T01:22:18.734Z,22.97
2019-03-04T01:23:18.715Z,22.88
2019-03-04T01:24:18.726Z,22.97
2019-03-04T01:25:18.718Z,22.85
2019-03-04T01:26:18.722Z,22.99
2019-03-04T01:27:18.711Z,22.96
2019-03-04T01:28:18.687Z,22.86
2019-03-04T01:29:18.675Z,22.86
2019-03-04T01:30:18.658Z,22.94
2019-03-04T01:31:18.655Z,22.89
2019-03-04T01:32:18.654Z,22.78
2019-03-04T01:33:18.659Z,22.81
2019-03-04T01:34:18.627Z,22.76
2019-03-04T01:35:18.646Z,22.86
2019-03-04T01:36:18.624Z,22.79
2019-03-04T01:37:18.630Z,22.67
2019-03-04T01:38:18.611Z,22.66
2019-03-04T01:39:18.631Z,22.67
2019-03-04T01:40:18.611Z,22.63
2019-03-04T01:41:18.586Z,22.57
2019-03-04T01:42:18.576Z,22.61
2019-03-04T01:43:18.565Z,22.56
2019-03-04T01:44:18.578Z,22.60
2019-03-04T01:45:18.561Z,22.59
2019-03-04T01:46:18.575Z,22.59
2019-03-04T01:47:18.540Z,22.63
2019-03-04T01:48:18.546Z,22.61
2019-03-04T01:49:18.519Z,22.59
2019-03-04T01:50:18.531Z,22.66
2019-03-04T01:51:18.529Z,22.61
2019-03-04T01:52:18.504Z,22.60
2019-03-04T01:53:18.513Z,22.56
2019-03-04T01:54:18.541Z,22.59
2019-03-04T01:55:18.489Z,22.60
2019-03-04T01:56:18.499Z,22.59
2019-03-04T01:57:18.491Z,22.52
2019-03-04T01:58:18.474Z,22.56
2019-03-04T01:59:18.481Z,22.46
2019-03-04T02:00:18.455Z,22.52
2019-03-04T02:01:18.450Z,22.45
2019-03-04T02:02:18.448Z,22.54
2019-03-04T02:03:18.438Z,22.46
2019-03-04T02:04:18.450Z,22.45
2019-03-04T02:05:18.434Z,22.41
2019-03-04T02:06:18.440Z,22.39
2019-03-04T02:07:18.404Z,22.41
2019-03-04T02:08:18.394Z,22.35
2019-03-04T02:09:18.404Z,22.41
2019-03-04T02:10:18.393Z,22.44
2019-03-04T02:11:18.391Z,22.45
2019-03-04T02:12:18.384Z,22.38
2019-03-04T02:13:18.349Z,22.36
2019-03-04T02:14:18.374Z,22.39
2019-03-04T02:15:18.370Z,22.24
2019-03-04T02:16:18.337Z,22.19
2019-03-04T02:17:18.335Z,22.14
2019-03-04T02:18:18.349Z,22.19
2019-03-04T02:19:18.324Z,22.19
2019-03-04T02:20:18.323Z,22.19
2019-03-04T02:21:18.311Z,22.17
2019-03-04T02:22:18.349Z,22.11
2019-03-04T02:23:18.319Z,22.15
2019-03-04T02:24:18.292Z,22.11
2019-03-04T02:25:18.274Z,22.14
2019-03-04T02:26:18.276Z,22.05
2019-03-04T02:27:18.270Z,22.11
2019-03-04T02:28:18.269Z,22.09
2019-03-04T02:29:18.252Z,22.04
2019-03-04T02:30:18.254Z,22.08
2019-03-04T02:31:18.244Z,22.06
2019-03-04T02:32:18.222Z,22.15
2019-03-04T02:33:18.266Z,22.05
2019-03-04T02:34:18.244Z,22.06
2019-03-04T02:35:18.223Z,22.02
2019-03-04T02:36:18.199Z,22.05
2019-03-04T02:37:18.190Z,22.11
2019-03-04T02:38:18.176Z,22.11
2019-03-04T02:39:18.176Z,22.08
2019-03-04T02:40:18.163Z,22.14
2019-03-04T02:41:18.175Z,22.19
2019-03-04T02:42:18.149Z,22.17
2019-03-04T02:43:18.162Z,22.12
2019-03-04T02:44:18.136Z,22.20
2019-03-04T02:45:18.124Z,22.14
2019-03-04T02:46:18.133Z,21.99
2019-03-04T02:47:18.162Z,22.09
2019-03-04T02:48:18.131Z,22.17
2019-03-04T02:49:18.118Z,22.19
2019-03-04T02:50:18.118Z,22.14
2019-03-04T02:51:18.089Z,22.21
2019-03-04T02:52:18.073Z,22.19
2019-03-04T02:53:18.073Z,22.19
2019-03-04T02:54:18.123Z,22.12
2019-03-04T02:55:18.091Z,22.19
2019-03-04T02:56:18.078Z,22.15
2019-03-04T02:57:18.060Z,22.21
2019-03-04T02:58:18.038Z,22.15
2019-03-04T02:59:18.045Z,22.21
2019-03-04T03:00:18.036Z,22.14
2019-03-04T03:01:18.066Z,22.14
2019-03-04T03:02:18.020Z,22.11
2019-03-04T03:03:18.003Z,22.21
2019-03-04T03:04:17.983Z,22.14
2019-03-04T03:05:17.985Z,22.21
2019-03-04T03:06:17.969Z,22.15
2019-03-04T03:07:17.988Z,22.20
2019-03-04T03:08:17.981Z,22.19
2019-03-04T03:09:17.946Z,22.04
2019-03-04T03:10:17.940Z,22.15
2019-03-04T03:11:17.931Z,22.02
2019-03-04T03:12:17.924Z,21.99
2019-03-04T03:13:17.936Z,21.98
2019-03-04T03:14:17.915Z,21.98
2019-03-04T03:15:17.929Z,21.96
2019-03-04T03:16:17.906Z,21.96
2019-03-04T03:17:17.892Z,22.02
2019-03-04T03:18:17.896Z,22.06
2019-03-04T03:19:17.879Z,21.93
2019-03-04T03:20:17.862Z,22.01
2019-03-04T03:21:17.885Z,22.05
2019-03-04T03:22:17.859Z,22.01
2019-03-04T03:23:17.905Z,21.98
2019-03-04T03:24:17.846Z,22.01
2019-03-04T03:25:17.843Z,22.05
2019-03-04T03:26:17.817Z,22.01
2019-03-04T03:27:17.857Z,21.99
2019-03-04T03:28:17.870Z,22.02
2019-03-04T03:29:17.813Z,22.02
2019-03-04T03:30:17.809Z,22.08
2019-03-04T03:31:17.781Z,22.08
2019-03-04T03:32:17.839Z,22.04
2019-03-04T03:33:17.779Z,22.05
2019-03-04T03:34:17.779Z,22.08
2019-03-04T03:35:17.769Z,22.01
2019-03-04T03:36:17.796Z,22.06
2019-03-04T03:37:17.747Z,22.06
2019-03-04T03:38:17.742Z,22.01
2019-03-04T03:39:17.739Z,22.02
2019-03-04T03:40:17.766Z,21.94
2019-03-04T03:41:17.725Z,21.99
2019-03-04T03:42:19.027Z,21.96
2019-03-04T03:43:17.705Z,21.99
2019-03-04T03:44:17.694Z,21.86
2019-03-04T03:45:17.724Z,22.01
2019-03-04T03:46:17.680Z,21.91
2019-03-04T03:47:17.716Z,21.98
2019-03-04T03:48:17.707Z,22.11
2019-03-04T03:49:17.674Z,22.02
2019-03-04T03:50:17.789Z,22.04
2019-03-04T03:51:17.628Z,22.02
2019-03-04T03:52:17.685Z,22.02
2019-03-04T03:53:17.624Z,22.01
2019-03-04T03:54:17.623Z,22.04
2019-03-04T03:55:17.622Z,22.05
2019-03-04T03:56:17.622Z,22.06
2019-03-04T03:57:17.588Z,22.05
2019-03-04T03:58:17.587Z,22.04
2019-03-04T03:59:17.580Z,22.05
2019-03-04T04:00:17.583Z,22.04
2019-03-04T04:01:17.559Z,22.09
2019-03-04T04:02:17.560Z,21.99
2019-03-04T04:03:17.552Z,22.14
2019-03-04T04:04:17.555Z,22.09
2019-03-04T04:05:17.536Z,22.14
2019-03-04T04:06:17.537Z,22.14
2019-03-04T04:07:17.517Z,22.04
2019-03-04T04:08:17.508Z,22.05
2019-03-04T04:09:17.515Z,22.06
2019-03-04T04:10:17.504Z,22.02
2019-03-04T04:11:17.501Z,22.01
2019-03-04T04:12:17.491Z,22.05
2019-03-04T04:13:17.484Z,21.98
2019-03-04T04:14:17.478Z,21.99
2019-03-04T04:15:17.477Z,21.94
2019-03-04T04:16:17.495Z,21.90
2019-03-04T04:17:17.506Z,21.85
2019-03-04T04:18:17.449Z,21.83
2019-03-04T04:19:17.446Z,21.82
2019-03-04T04:20:17.416Z,21.74
2019-03-04T04:21:17.427Z,21.82
2019-03-04T04:22:17.393Z,21.77
2019-03-04T04:23:17.414Z,21.71
2019-03-04T04:24:17.400Z,21.77
2019-03-04T04:25:17.391Z,21.74
2019-03-04T04:26:17.379Z,21.79
2019-03-04T04:27:17.355Z,21.82
2019-03-04T04:28:17.357Z,21.73
2019-03-04T04:29:17.349Z,21.71
2019-03-04T04:30:17.352Z,21.73
2019-03-04T04:31:17.352Z,21.75
2019-03-04T04:32:17.311Z,21.82
2019-03-04T04:33:17.331Z,21.81
2019-03-04T04:34:17.328Z,21.70
2019-03-04T04:35:17.307Z,21.64
2019-03-04T04:36:17.312Z,21.70
2019-03-04T04:37:17.387Z,21.67
2019-03-04T04:38:17.283Z,21.63
2019-03-04T04:39:17.274Z,21.63
2019-03-04T04:40:17.277Z,21.68
2019-03-04T04:41:17.257Z,21.68
2019-03-04T04:42:17.273Z,21.74
2019-03-04T04:43:17.246Z,21.67
2019-03-04T04:44:17.238Z,21.73
2019-03-04T04:45:17.228Z,21.73
2019-03-04T04:46:17.221Z,21.75
2019-03-04T04:47:17.194Z,21.68
2019-03-04T04:48:17.201Z,21.73
2019-03-04T04:49:17.199Z,21.81
2019-03-04T04:50:17.193Z,21.73
2019-03-04T04:51:17.178Z,21.67
2019-03-04T04:52:17.170Z,21.77
2019-03-04T04:53:17.182Z,21.67
2019-03-04T04:54:17.158Z,21.68
2019-03-04T04:55:17.160Z,21.67
2019-03-04T04:56:17.141Z,21.68
2019-03-04T04:57:17.145Z,21.63
2019-03-04T04:58:17.141Z,21.51
2019-03-04T04:59:17.102Z,21.51
2019-03-04T05:00:17.111Z,21.59
2019-03-04T05:01:17.103Z,21.59
2019-03-04T05:02:17.086Z,21.52
2019-03-04T05:03:17.097Z,21.59
2019-03-04T05:04:17.095Z,21.58
2019-03-04T05:05:17.076Z,21.67
2019-03-04T05:06:17.075Z,21.66
2019-03-04T05:07:17.062Z,21.66
2019-03-04T05:08:17.064Z,21.63
2019-03-04T05:09:17.049Z,21.68
2019-03-04T05:10:17.039Z,21.67
2019-03-04T05:11:17.043Z,21.70
2019-03-04T05:12:17.017Z,21.63
2019-03-04T05:13:16.990Z,21.63
2019-03-04T05:14:17.000Z,21.63
2019-03-04T05:15:17.003Z,21.67
2019-03-04T05:16:16.990Z,21.63
2019-03-04T05:17:16.979Z,21.66
2019-03-04T05:18:16.967Z,21.68
2019-03-04T05:19:16.958Z,21.64
2019-03-04T05:20:16.943Z,21.71
2019-03-04T05:21:16.944Z,21.68
2019-03-04T05:22:16.930Z,21.73
2019-03-04T05:23:16.925Z,21.83
2019-03-04T05:24:16.912Z,21.81
2019-03-04T05:25:16.913Z,21.79
2019-03-04T05:26:16.906Z,21.89
2019-03-04T05:27:16.914Z,21.90
2019-03-04T05:28:16.889Z,21.86
2019-03-04T05:29:16.881Z,21.79
2019-03-04T05:30:16.877Z,21.90
2019-03-04T05:31:16.880Z,21.93
2019-03-04T05:32:16.869Z,21.91
2019-03-04T05:33:16.863Z,21.91
2019-03-04T05:34:16.855Z,21.98
2019-03-04T05:35:16.822Z,21.91
2019-03-04T05:36:16.827Z,21.94
2019-03-04T05:37:16.824Z,21.91
2019-03-04T05:38:16.810Z,21.86
2019-03-04T05:39:16.797Z,21.83
2019-03-04T05:40:16.796Z,21.79
2019-03-04T05:41:16.808Z,21.63
2019-03-04T05:42:16.776Z,21.68
2019-03-04T05:43:16.821Z,21.64
2019-03-04T05:44:16.758Z,21.61
2019-03-04T05:45:16.772Z,21.63
2019-03-04T05:46:16.736Z,21.56
2019-03-04T05:47:16.750Z,21.67
2019-03-04T05:48:16.832Z,21.67
2019-03-04T05:49:16.772Z,21.64
2019-03-04T05:50:16.722Z,21.67
2019-03-04T05:51:16.756Z,21.64
2019-03-04T05:52:16.724Z,21.63
2019-03-04T05:53:16.720Z,21.58
2019-03-04T05:54:16.680Z,21.63
2019-03-04T05:55:16.728Z,21.59
2019-03-04T05:56:16.726Z,21.56
2019-03-04T05:57:16.667Z,21.56
2019-03-04T05:58:16.709Z,21.66
2019-03-04T05:59:19.826Z,21.61
2019-03-04T06:00:16.648Z,21.67
2019-03-04T06:01:16.639Z,21.66
2019-03-04T06:02:16.638Z,21.61
2019-03-04T06:03:16.636Z,21.64
2019-03-04T06:04:16.761Z,21.58
2019-03-04T06:05:16.621Z,21.63
2019-03-04T06:06:16.595Z,21.68
2019-03-04T06:07:16.602Z,21.64
2019-03-04T06:08:16.575Z,21.67
2019-03-04T06:09:16.573Z,21.64
2019-03-04T06:10:16.574Z,21.64
2019-03-04T06:11:16.555Z,21.82
2019-03-04T06:12:16.594Z,21.67
2019-03-04T06:13:16.549Z,21.83
2019-03-04T06:14:16.535Z,21.73
2019-03-04T06:15:16.535Z,21.79
2019-03-04T06:16:16.500Z,21.81
2019-03-04T06:17:16.510Z,21.77
2019-03-04T06:18:16.500Z,21.81
2019-03-04T06:19:16.538Z,21.77
2019-03-04T06:20:16.498Z,21.68
2019-03-04T06:21:16.484Z,21.79
2019-03-04T06:22:16.474Z,21.64
2019-03-04T06:23:16.472Z,21.68
2019-03-04T06:24:16.478Z,21.68
2019-03-04T06:25:16.438Z,21.67
2019-03-04T06:26:16.442Z,21.63
2019-03-04T06:27:16.448Z,21.67
2019-03-04T06:28:16.424Z,21.59
2019-03-04T06:29:16.418Z,21.55
2019-03-04T06:30:16.436Z,21.56
2019-03-04T06:31:16.392Z,21.63
2019-03-04T06:32:16.393Z,21.64
2019-03-04T06:33:16.395Z,21.61
2019-03-04T06:34:16.373Z,21.70
2019-03-04T06:35:16.379Z,21.68
2019-03-04T06:36:16.372Z,21.75
2019-03-04T06:37:16.356Z,21.68
2019-03-04T06:38:16.340Z,21.64
2019-03-04T06:39:16.339Z,21.68
2019-03-04T06:40:16.342Z,21.79
2019-03-04T06:41:16.328Z,21.75
2019-03-04T06:42:16.359Z,21.68
2019-03-04T06:43:16.316Z,21.67
2019-03-04T06:44:16.316Z,21.61
2019-03-04T06:45:16.313Z,21.70
2019-03-04T06:46:16.327Z,21.63
2019-03-04T06:47:16.280Z,21.53
2019-03-04T06:48:16.268Z,21.49
2019-03-04T06:49:16.265Z,21.55
2019-03-04T06:50:16.256Z,21.55
2019-03-04T06:51:16.249Z,21.46
2019-03-04T06:52:16.253Z,21.52
2019-03-04T06:53:16.226Z,21.48
2019-03-04T06:54:16.224Z,21.56
2019-03-04T06:55:16.219Z,21.53
2019-03-04T06:56:16.215Z,21.59
2019-03-04T06:57:16.216Z,21.51
2019-03-04T06:58:16.179Z,21.53
2019-03-04T06:59:16.198Z,21.52
2019-03-04T07:00:16.175Z,21.52
2019-03-04T07:01:16.154Z,21.43
2019-03-04T07:02:16.153Z,21.53
2019-03-04T07:03:16.167Z,21.36
2019-03-04T07:04:16.146Z,21.40
2019-03-04T07:05:16.143Z,21.38
2019-03-04T07:06:16.124Z,21.45
2019-03-04T07:07:16.134Z,21.27
2019-03-04T07:08:16.270Z,21.31
2019-03-04T07:09:16.113Z,21.42
2019-03-04T07:10:16.099Z,21.38
2019-03-04T07:11:16.096Z,21.43
2019-03-04T07:12:16.117Z,21.43
2019-03-04T07:13:16.065Z,21.43
2019-03-04T07:14:16.081Z,21.43
2019-03-04T07:15:16.056Z,21.38
2019-03-04T07:16:16.063Z,21.34
2019-03-04T07:17:16.033Z,21.38
2019-03-04T07:18:16.052Z,21.34
2019-03-04T07:19:16.181Z,21.36
2019-03-04T07:20:16.024Z,21.43
2019-03-04T07:21:16.011Z,21.38
2019-03-04T07:22:15.984Z,21.31
2019-03-04T07:23:16.009Z,21.43
2019-03-04T07:24:16.003Z,21.43
2019-03-04T07:25:15.988Z,21.40
2019-03-04T07:26:15.983Z,21.49
2019-03-04T07:27:15.953Z,21.40
2019-03-04T07:28:15.935Z,21.31
2019-03-04T07:29:15.952Z,21.30
2019-03-04T07:30:15.939Z,21.37
2019-03-04T07:31:15.926Z,21.38
2019-03-04T07:32:15.922Z,21.46
2019-03-04T07:33:15.925Z,21.45
2019-03-04T07:34:15.885Z,21.38
2019-03-04T07:35:15.910Z,21.38
2019-03-04T07:36:15.936Z,21.37
2019-03-04T07:37:15.895Z,21.40
2019-03-04T07:38:15.927Z,21.40
2019-03-04T07:39:15.904Z,21.38
2019-03-04T07:40:16.501Z,21.37
2019-03-04T07:41:15.896Z,21.37
2019-03-04T07:42:15.848Z,21.42
2019-03-04T07:43:15.833Z,21.43
2019-03-04T07:44:15.838Z,21.40
2019-03-04T07:45:15.809Z,21.42
2019-03-04T07:46:15.807Z,21.40
2019-03-04T07:47:15.792Z,21.45
2019-03-04T07:48:15.797Z,21.40
2019-03-04T07:49:15.778Z,21.42
2019-03-04T07:50:15.772Z,21.51
2019-03-04T07:51:15.924Z,21.51
2019-03-04T07:52:15.814Z,21.43
2019-03-04T07:53:15.753Z,21.52
2019-03-04T07:54:15.755Z,21.42
2019-03-04T07:55:15.725Z,21.42
2019-03-04T07:56:15.742Z,21.34
2019-03-04T07:57:15.741Z,21.43
2019-03-04T07:58:15.716Z,21.40
2019-03-04T07:59:15.744Z,21.40
2019-03-04T08:00:15.747Z,21.43
2019-03-04T08:01:15.701Z,21.46
2019-03-04T08:02:15.732Z,21.45
2019-03-04T08:03:15.729Z,21.52
2019-03-04T08:04:15.717Z,21.48
2019-03-04T08:05:15.658Z,21.53
2019-03-04T08:06:15.644Z,21.38
2019-03-04T08:07:15.635Z,21.49
2019-03-04T08:08:15.624Z,21.43
2019-03-04T08:09:15.673Z,21.43
2019-03-04T08:10:15.632Z,21.53
2019-03-04T08:11:15.620Z,21.51
2019-03-04T08:12:15.612Z,21.55
2019-03-04T08:13:15.635Z,21.52
2019-03-04T08:14:15.629Z,21.58
2019-03-04T08:15:15.589Z,21.58
2019-03-04T08:16:15.585Z,21.66
2019-03-04T08:17:15.570Z,21.63
2019-03-04T08:18:15.555Z,21.73
2019-03-04T08:19:15.558Z,21.67
2019-03-04T08:20:15.552Z,21.59
2019-03-04T08:21:15.540Z,21.67
2019-03-04T08:22:15.568Z,21.64
2019-03-04T08:23:15.565Z,21.52
2019-03-04T08:24:15.518Z,21.53
2019-03-04T08:25:15.497Z,21.55
2019-03-04T08:26:15.496Z,21.49
2019-03-04T08:27:15.489Z,21.53
2019-03-04T08:28:15.494Z,21.53
2019-03-04T08:29:15.517Z,21.56
2019-03-04T08:30:15.478Z,21.56
2019-03-04T08:31:15.449Z,21.56
2019-03-04T08:32:15.461Z,21.51
2019-03-04T08:33:15.454Z,21.51
2019-03-04T08:34:15.425Z,21.51
2019-03-04T08:35:15.413Z,21.55
2019-03-04T08:36:15.415Z,21.53
2019-03-04T08:37:15.429Z,21.52
2019-03-04T08:38:15.409Z,21.53
2019-03-04T08:39:15.396Z,21.58
2019-03-04T08:40:15.392Z,21.58
2019-03-04T08:41:15.398Z,21.53
2019-03-04T08:42:15.378Z,21.55
2019-03-04T08:43:15.355Z,21.56
2019-03-04T08:44:15.359Z,21.49
2019-03-04T08:45:15.333Z,21.52
2019-03-04T08:46:15.338Z,21.56
2019-03-04T08:47:15.343Z,21.56
2019-03-04T08:48:15.316Z,21.48
2019-03-04T08:49:15.328Z,21.48
2019-03-04T08:50:15.361Z,21.40
2019-03-04T08:51:15.297Z,21.43
2019-03-04T08:52:15.307Z,21.43
2019-03-04T08:53:15.271Z,21.40
2019-03-04T08:54:15.266Z,21.43
2019-03-04T08:55:15.277Z,21.34
2019-03-04T08:56:15.260Z,21.38
2019-03-04T08:57:15.268Z,21.40
2019-03-04T08:58:15.238Z,21.43
2019-03-04T08:59:15.236Z,21.43
2019-03-04T09:00:15.222Z,21.45
2019-03-04T09:01:15.234Z,21.38
2019-03-04T09:02:15.207Z,21.48
2019-03-04T09:03:15.215Z,21.46
2019-03-04T09:04:15.199Z,21.40
2019-03-04T09:05:15.176Z,21.38
2019-03-04T09:06:15.195Z,21.37
2019-03-04T09:07:15.188Z,21.42
2019-03-04T09:08:15.166Z,21.31
2019-03-04T09:09:15.157Z,21.40
2019-03-04T09:10:15.143Z,21.38
2019-03-04T09:11:15.136Z,21.36
2019-03-04T09:12:15.148Z,21.37
2019-03-04T09:13:15.124Z,21.38
2019-03-04T09:14:15.122Z,21.31
2019-03-04T09:15:15.159Z,21.34
2019-03-04T09:16:15.109Z,21.40
2019-03-04T09:17:15.104Z,21.37
2019-03-04T09:18:15.086Z,21.42
2019-03-04T09:19:15.073Z,21.42
2019-03-04T09:20:15.057Z,21.46
2019-03-04T09:21:15.042Z,21.31
2019-03-04T09:22:15.054Z,21.37
2019-03-04T09:23:15.059Z,21.36
2019-03-04T09:24:15.089Z,21.45
2019-03-04T09:25:15.023Z,21.36
2019-03-04T09:26:15.031Z,21.48
2019-03-04T09:27:15.002Z,21.42
2019-03-04T09:28:15.013Z,21.45
2019-03-04T09:29:15.019Z,21.38
2019-03-04T09:30:14.986Z,21.42
2019-03-04T09:31:14.989Z,21.48
2019-03-04T09:32:14.980Z,21.53
2019-03-04T09:33:14.990Z,21.63
2019-03-04T09:34:14.944Z,21.55
2019-03-04T09:35:14.946Z,21.51
2019-03-04T09:36:14.942Z,21.46
2019-03-04T09:37:14.935Z,21.49
2019-03-04T09:38:14.928Z,21.46
2019-03-04T09:39:14.922Z,21.49
2019-03-04T09:40:14.906Z,21.42
2019-03-04T09:41:14.952Z,21.49
2019-03-04T09:42:14.886Z,21.53
2019-03-04T09:43:15.041Z,21.58
2019-03-04T09:44:14.884Z,21.67
2019-03-04T09:45:14.895Z,21.66
2019-03-04T09:46:14.852Z,21.67
2019-03-04T09:47:14.897Z,21.63
2019-03-04T09:48:14.855Z,21.67
2019-03-04T09:49:14.860Z,21.70
2019-03-04T09:50:14.877Z,21.66
2019-03-04T09:51:23.829Z,21.70
2019-03-04T09:52:14.824Z,21.68
2019-03-04T09:53:14.818Z,21.81
2019-03-04T09:54:14.860Z,21.82
2019-03-04T09:55:14.794Z,21.75
2019-03-04T09:56:14.780Z,21.77
2019-03-04T09:57:14.777Z,21.79
2019-03-04T09:58:14.825Z,21.79
2019-03-04T09:59:14.820Z,21.85
2019-03-04T10:00:14.762Z,21.96
2019-03-04T10:01:14.764Z,21.91
2019-03-04T10:02:14.752Z,21.93
2019-03-04T10:03:14.781Z,21.91
2019-03-04T10:04:14.729Z,22.01
2019-03-04T10:05:14.733Z,22.02
2019-03-04T10:06:14.725Z,22.02
2019-03-04T10:07:14.720Z,22.02
2019-03-04T10:08:14.684Z,22.01
2019-03-04T10:09:14.688Z,22.17
2019-03-04T10:10:16.033Z,22.12
2019-03-04T10:11:14.690Z,22.21
2019-03-04T10:12:14.655Z,22.15
2019-03-04T10:13:14.652Z,22.20
2019-03-04T10:14:14.692Z,22.20
2019-03-04T10:15:14.644Z,22.24
2019-03-04T10:16:18.630Z,22.17
2019-03-04T10:17:14.681Z,22.24
2019-03-04T10:18:14.675Z,22.29
2019-03-04T10:19:14.665Z,22.26
2019-03-04T10:20:14.597Z,22.23
2019-03-04T10:21:14.657Z,22.19
2019-03-04T10:22:14.598Z,22.26
2019-03-04T10:23:14.600Z,22.26
2019-03-04T10:24:14.600Z,22.31
2019-03-04T10:25:14.570Z,22.36
2019-03-04T10:26:22.281Z,22.38
2019-03-04T10:27:14.557Z,22.35
2019-03-04T10:28:14.547Z,22.41
2019-03-04T10:29:14.545Z,22.42
2019-03-04T10:30:14.548Z,22.45
2019-03-04T10:31:14.538Z,22.54
2019-03-04T10:32:14.516Z,22.63
2019-03-04T10:33:14.508Z,22.48
2019-03-04T10:34:14.524Z,22.52
2019-03-04T10:35:14.507Z,22.49
2019-03-04T10:36:14.498Z,22.54
2019-03-04T10:37:14.495Z,22.59
2019-03-04T10:38:22.369Z,22.57
2019-03-04T10:39:14.484Z,22.63
2019-03-04T10:40:15.654Z,22.56
2019-03-04T10:41:14.468Z,22.48
2019-03-04T10:42:14.445Z,22.48
2019-03-04T10:43:14.481Z,22.46
2019-03-04T10:44:14.450Z,22.51
2019-03-04T10:45:14.429Z,22.52
2019-03-04T10:46:14.427Z,22.49
2019-03-04T10:47:14.417Z,22.51
2019-03-04T10:48:14.419Z,22.61
2019-03-04T10:49:14.409Z,22.49
2019-03-04T10:50:14.386Z,22.52
2019-03-04T10:51:14.391Z,22.54
2019-03-04T10:52:14.380Z,22.57
2019-03-04T10:53:14.372Z,22.64
2019-03-04T10:54:14.348Z,22.59
2019-03-04T10:55:14.360Z,22.60
2019-03-04T10:56:14.351Z,22.64
2019-03-04T10:57:14.341Z,22.69
2019-03-04T10:58:14.330Z,22.67
2019-03-04T10:59:14.318Z,22.61
2019-03-04T11:00:14.318Z,22.66
2019-03-04T11:01:14.358Z,22.69
2019-03-04T11:02:14.307Z,22.69
2019-03-04T11:03:14.309Z,22.66
2019-03-04T11:04:14.298Z,22.66
2019-03-04T11:05:14.272Z,22.64
2019-03-04T11:06:14.283Z,22.74
2019-03-04T11:07:14.285Z,22.70
2019-03-04T11:08:14.276Z,22.81
2019-03-04T11:09:14.254Z,22.86
2019-03-04T11:10:14.243Z,22.82
2019-03-04T11:11:14.243Z,22.85
2019-03-04T11:12:14.265Z,22.85
2019-03-04T11:13:14.223Z,22.86
2019-03-04T11:14:14.218Z,22.86
2019-03-04T11:15:14.228Z,22.89
2019-03-04T11:16:14.258Z,22.85
2019-03-04T11:17:14.194Z,22.89
2019-03-04T11:18:14.198Z,23.00
2019-03-04T11:19:14.202Z,22.94
2019-03-04T11:20:14.183Z,23.00
2019-03-04T11:21:14.168Z,22.97
2019-03-04T11:22:14.162Z,23.00
2019-03-04T11:23:15.107Z,22.94
2019-03-04T11:24:14.156Z,23.12
2019-03-04T11:25:14.128Z,23.03
2019-03-04T11:26:14.148Z,23.15
2019-03-04T11:27:14.149Z,23.11
2019-03-04T11:28:14.136Z,23.16
2019-03-04T11:29:14.117Z,23.23
2019-03-04T11:30:14.099Z,23.26
2019-03-04T11:31:14.085Z,23.29
2019-03-04T11:32:14.106Z,23.35
2019-03-04T11:33:14.082Z,23.39
2019-03-04T11:34:14.124Z,23.42
2019-03-04T11:35:14.125Z,23.44
2019-03-04T11:36:14.072Z,23.35
2019-03-04T11:37:14.071Z,23.37
2019-03-04T11:38:14.048Z,23.38
2019-03-04T11:39:14.056Z,23.42
2019-03-04T11:40:14.083Z,23.49
2019-03-04T11:41:14.078Z,23.52
2019-03-04T11:42:14.030Z,23.54
2019-03-04T11:43:14.021Z,23.57
2019-03-04T11:44:14.007Z,23.57
2019-03-04T11:45:14.009Z,23.64
2019-03-04T11:46:13.987Z,23.69
2019-03-04T11:47:14.003Z,23.75
2019-03-04T11:48:14.006Z,23.75
2019-03-04T11:49:14.000Z,23.78
2019-03-04T11:50:13.987Z,23.84
2019-03-04T11:51:13.993Z,23.82
2019-03-04T11:52:13.966Z,23.89
2019-03-04T11:53:13.977Z,23.96
2019-03-04T11:54:13.953Z,24.04
2019-03-04T11:55:13.934Z,24.08
2019-03-04T11:56:13.934Z,24.08
2019-03-04T11:57:13.920Z,24.18
2019-03-04T11:58:13.913Z,24.18
2019-03-04T11:59:13.911Z,24.23
2019-03-04T12:00:13.934Z,24.18
2019-03-04T12:01:13.905Z,24.26
2019-03-04T12:02:13.907Z,24.18
2019-03-04T12:03:13.907Z,24.02
2019-03-04T12:04:13.886Z,24.14
2019-03-04T12:05:13.883Z,24.02
2019-03-04T12:06:13.891Z,23.99
2019-03-04T12:07:13.864Z,23.96
2019-03-04T12:08:13.887Z,24.00
2019-03-04T12:09:13.877Z,24.06
2019-03-04T12:10:13.847Z,24.12
2019-03-04T12:11:13.829Z,24.15
2019-03-04T12:12:13.848Z,24.12
2019-03-04T12:13:13.840Z,24.18
2019-03-04T12:14:13.831Z,24.19
2019-03-04T12:15:13.829Z,24.27
2019-03-04T12:16:13.808Z,24.29
2019-03-04T12:17:13.790Z,24.39
2019-03-04T12:18:13.853Z,24.41
2019-03-04T12:19:13.818Z,24.44
2019-03-04T12:20:13.806Z,24.49
2019-03-04T12:21:13.772Z,24.53
2019-03-04T12:22:13.776Z,24.53
2019-03-04T12:23:13.788Z,24.64
2019-03-04T12:24:13.751Z,24.63
2019-03-04T12:25:13.764Z,24.60
2019-03-04T12:26:13.759Z,24.75
2019-03-04T12:27:13.766Z,24.82
2019-03-04T12:28:13.764Z,24.80
2019-03-04T12:29:13.748Z,24.92
2019-03-04T12:30:13.740Z,24.86
2019-03-04T12:31:13.731Z,24.98
2019-03-04T12:32:13.737Z,25.11
2019-03-04T12:33:13.712Z,25.17
2019-03-04T12:34:13.705Z,25.26
2019-03-04T12:35:13.697Z,25.39
2019-03-04T12:36:13.686Z,25.48
2019-03-04T12:37:13.687Z,25.61
2019-03-04T12:38:13.691Z,25.66
2019-03-04T12:39:13.670Z,25.93
2019-03-04T12:40:13.680Z,25.90
2019-03-04T12:41:13.679Z,25.90
2019-03-04T12:42:13.663Z,26.09
2019-03-04T12:43:13.670Z,26.21
2019-03-04T12:44:13.700Z,26.28
2019-03-04T12:45:13.673Z,26.19
2019-03-04T12:46:13.650Z,26.23
2019-03-04T12:47:13.635Z,26.32
2019-03-04T12:48:13.650Z,26.24
2019-03-04T12:49:13.649Z,26.23
2019-03-04T12:50:13.645Z,26.35
2019-03-04T12:51:22.467Z,26.38
2019-03-04T12:52:13.629Z,26.59